createdAt,value
2022-10-15T05:32:51.811Z,69.73
2022-10-15T05:38:13.313Z,69.17
2022-10-15T05:43:37.409Z,69.09
2022-10-15T05:49:06.178Z,68.79
2022-10-15T05:54:39.147Z,68.67
2022-10-15T06:00:00.026Z,68.87
2022-10-15T06:05:20.860Z,69.13
2022-10-15T06:10:41.735Z,69.34
2022-10-15T06:16:03.859Z,68.46
2022-10-15T06:21:25.075Z,68.37
2022-10-15T06:26:46.110Z,68.22
2022-10-15T06:32:11.362Z,68.14
2022-10-15T06:37:36.969Z,68.26
2022-10-15T06:43:09.011Z,67.85
2022-10-15T06:48:30.437Z,67.90
2022-10-15T06:53:51.376Z,67.78
2022-10-15T06:59:12.456Z,67.31
2022-10-15T07:04:33.469Z,67.62
2022-10-15T07:09:55.255Z,68.04
2022-10-15T07:15:16.226Z,67.41
2022-10-15T07:20:37.143Z,67.37
2022-10-15T07:25:59.738Z,67.01
2022-10-15T07:31:21.043Z,67.11
2022-10-15T07:36:42.157Z,67.15
2022-10-15T07:42:02.988Z,67.00
2022-10-15T07:47:23.918Z,67.32
2022-10-15T07:52:45.179Z,67.29
2022-10-15T07:58:08.226Z,67.27
2022-10-15T08:03:30.556Z,67.06
2022-10-15T08:08:51.152Z,67.12
2022-10-15T08:14:12.089Z,66.72
2022-10-15T08:19:33.507Z,66.56
2022-10-15T08:24:54.449Z,66.44
2022-10-15T08:30:15.184Z,66.03
2022-10-15T08:35:39.021Z,66.45
2022-10-15T08:41:02.611Z,65.75
2022-10-15T08:46:42.238Z,65.23
2022-10-15T08:52:21.247Z,62.69
2022-10-15T08:58:04.052Z,54.95
2022-10-15T09:03:47.677Z,54.04
2022-10-15T09:09:11.798Z,52.72
2022-10-15T09:14:38.129Z,47.84
2022-10-15T09:20:04.105Z,52.43
2022-10-15T09:25:27.482Z,52.91
2022-10-15T09:30:57.536Z,52.27
2022-10-15T09:36:27.530Z,53.72
2022-10-15T09:42:06.893Z,55.87
2022-10-15T09:47:33.731Z,57.61
2022-10-15T09:53:23.257Z,57.75
2022-10-15T09:58:53.765Z,57.27
2022-10-15T10:04:20.769Z,57.77
2022-10-15T10:09:56.701Z,57.74
2022-10-15T10:15:29.577Z,58.10
2022-10-15T10:20:59.620Z,58.45
2022-10-15T10:26:20.609Z,58.31
2022-10-15T10:31:45.001Z,58.60
2022-10-15T10:37:14.186Z,58.91
2022-10-15T10:42:38.121Z,57.95
2022-10-15T10:48:23.786Z,58.17
2022-10-15T10:54:01.074Z,58.58
2022-10-15T10:59:27.967Z,58.28
2022-10-15T11:04:48.779Z,57.99
2022-10-15T11:10:28.239Z,57.79
2022-10-15T11:16:18.162Z,58.04
2022-10-15T11:21:47.932Z,58.68
2022-10-15T11:27:43.925Z,59.26
2022-10-15T11:33:33.740Z,59.13
2022-10-15T11:39:47.096Z,59.41
2022-10-15T11:45:29.325Z,59.56
2022-10-15T11:51:07.469Z,59.93
2022-10-15T11:56:38.780Z,60.13
2022-10-15T12:02:06.196Z,59.84
2022-10-15T12:07:37.340Z,59.64
2022-10-15T12:13:07.361Z,59.15
2022-10-15T12:18:40.789Z,58.97
2022-10-15T12:24:02.275Z,58.75
2022-10-15T12:29:27.278Z,58.55
2022-10-15T12:34:55.825Z,59.13
2022-10-15T12:40:22.834Z,59.28
2022-10-15T12:45:56.526Z,59.51
2022-10-15T12:51:17.281Z,59.93
2022-10-15T12:56:42.542Z,59.88
2022-10-15T13:02:03.502Z,60.27
2022-10-15T13:07:25.117Z,59.70
2022-10-15T13:12:53.959Z,59.64
2022-10-15T13:18:16.805Z,59.55
2022-10-15T13:23:46.172Z,59.97
2022-10-15T13:29:18.638Z,60.45
2022-10-15T13:34:41.791Z,60.56
2022-10-15T13:40:07.796Z,61.01
2022-10-15T13:45:30.112Z,60.48
2022-10-15T13:50:57.350Z,60.45
2022-10-15T13:56:26.474Z,60.78
2022-10-15T14:01:51.898Z,61.11
2022-10-15T14:07:27.657Z,61.54
2022-10-15T14:12:52.063Z,61.67
2022-10-15T14:18:15.772Z,61.75
2022-10-15T14:23:36.809Z,61.84
2022-10-15T14:28:57.680Z,61.94
2022-10-15T14:34:46.354Z,62.69
2022-10-15T14:40:13.161Z,62.43
2022-10-15T14:45:52.705Z,62.57
2022-10-15T14:51:25.581Z,63.05
2022-10-15T14:56:46.483Z,62.67
2022-10-15T15:02:14.772Z,62.66
2022-10-15T15:07:35.812Z,62.76
2022-10-15T15:12:57.434Z,63.17
2022-10-15T15:18:19.217Z,63.74
2022-10-15T15:23:40.760Z,63.83
2022-10-15T15:29:01.946Z,64.12
2022-10-15T15:34:23.807Z,64.60
2022-10-15T15:39:45.118Z,64.46
2022-10-15T15:45:06.599Z,64.77
2022-10-15T15:50:27.493Z,64.97
2022-10-15T15:55:48.730Z,65.20
2022-10-15T16:01:10.093Z,65.19
2022-10-15T16:06:31.340Z,65.68
2022-10-15T16:11:52.816Z,65.95
2022-10-15T16:17:13.644Z,66.27
2022-10-15T16:22:34.562Z,65.77
2022-10-15T16:27:57.178Z,65.98
2022-10-15T16:33:18.321Z,66.31
2022-10-15T16:38:40.530Z,66.31
2022-10-15T16:44:01.815Z,66.55
2022-10-15T16:49:22.265Z,66.96
2022-10-15T16:54:43.031Z,66.54
2022-10-15T17:00:05.114Z,66.79
2022-10-15T17:05:26.178Z,67.20
2022-10-15T17:10:46.984Z,67.45
2022-10-15T17:16:18.628Z,67.66
2022-10-15T17:21:42.453Z,67.19
2022-10-15T17:27:04.647Z,67.50
2022-10-15T17:32:25.816Z,67.55
2022-10-15T17:37:47.240Z,67.72
2022-10-15T17:43:08.004Z,67.96
2022-10-15T17:48:29.686Z,68.13
2022-10-15T17:53:52.278Z,68.16
2022-10-15T17:59:13.524Z,68.59
2022-10-15T18:04:34.366Z,68.32
2022-10-15T18:09:55.228Z,68.65
2022-10-15T18:15:15.898Z,69.21
2022-10-15T18:20:40.573Z,68.80
2022-10-15T18:26:03.356Z,68.86
2022-10-15T18:31:26.216Z,68.70
2022-10-15T18:36:47.206Z,69.45
2022-10-15T18:42:07.825Z,69.58
2022-10-15T18:47:28.680Z,69.20
2022-10-15T18:52:49.478Z,70.01
2022-10-15T18:58:10.408Z,69.28
2022-10-15T19:03:32.293Z,69.84
2022-10-15T19:08:53.340Z,70.11
2022-10-15T19:14:15.900Z,69.74
2022-10-15T19:19:38.343Z,69.80
2022-10-15T19:24:59.227Z,70.02
2022-10-15T19:30:21.137Z,70.97
2022-10-15T19:35:41.934Z,70.86
2022-10-15T19:41:04.684Z,69.64
2022-10-15T19:46:26.840Z,69.93
2022-10-15T19:51:48.934Z,70.15
2022-10-15T19:57:09.911Z,70.39
2022-10-15T20:02:32.091Z,70.25
2022-10-15T20:07:52.821Z,70.89
2022-10-15T20:13:15.721Z,70.52
2022-10-15T20:18:36.985Z,70.59
2022-10-15T20:23:58.924Z,70.09
2022-10-15T20:29:20.035Z,70.49
2022-10-15T20:34:40.914Z,70.54
2022-10-15T20:40:01.668Z,70.62
2022-10-15T20:45:22.716Z,70.50
2022-10-15T20:50:44.087Z,70.36
2022-10-15T20:56:05.727Z,70.09
2022-10-15T21:01:26.691Z,70.13
2022-10-15T21:06:47.493Z,70.29
2022-10-15T21:12:10.171Z,70.30
2022-10-15T21:17:30.816Z,69.86
2022-10-15T21:22:51.637Z,70.21
2022-10-15T21:28:12.297Z,70.31
2022-10-15T21:33:34.033Z,69.90
2022-10-15T21:39:02.002Z,69.87
2022-10-15T21:44:22.768Z,69.96
2022-10-15T21:49:45.710Z,70.22
2022-10-15T21:55:06.833Z,70.07
